createdAt,value
2022-08-12T00:00:14.736Z,100972.81
2022-08-12T00:02:02.857Z,100970.84
2022-08-12T00:03:20.669Z,100972.44
2022-08-12T00:04:42.002Z,100982.00
2022-08-12T00:06:04.832Z,100977.19
2022-08-12T00:07:27.121Z,100973.91
2022-08-12T00:08:50.827Z,100971.59
2022-08-12T00:10:12.066Z,100975.63
2022-08-12T00:11:33.853Z,100970.06
2022-08-12T00:12:54.971Z,100972.44
2022-08-12T00:14:15.816Z,100965.28
2022-08-12T00:15:38.601Z,100965.31
2022-08-12T00:16:59.416Z,100964.94
2022-08-12T00:18:23.838Z,100972.13
2022-08-12T00:19:46.203Z,100970.94
2022-08-12T00:21:06.792Z,100975.00
2022-08-12T00:22:28.881Z,100971.00
2022-08-12T00:23:49.609Z,100970.19
2022-08-12T00:25:17.336Z,100973.41
2022-08-12T00:26:41.157Z,100973.00
2022-08-12T00:28:04.724Z,100967.03
2022-08-12T00:29:26.673Z,100976.22
2022-08-12T00:30:47.815Z,100975.44
2022-08-12T00:32:08.789Z,100974.22
2022-08-12T00:33:38.609Z,100971.03
2022-08-12T00:35:13.370Z,100977.81
2022-08-12T00:36:36.072Z,100969.38
2022-08-12T00:37:59.023Z,100973.38
2022-08-12T00:39:19.780Z,100974.94
2022-08-12T00:40:42.515Z,100973.34
2022-08-12T00:42:04.812Z,100977.31
2022-08-12T00:43:10.624Z,100971.72
2022-08-12T00:44:15.651Z,100966.91
2022-08-12T00:45:20.751Z,100973.31
2022-08-12T00:46:33.516Z,100976.91
2022-08-12T00:47:37.890Z,100970.09
2022-08-12T00:48:42.093Z,100971.69
2022-08-12T00:49:44.959Z,100968.88
2022-08-12T00:50:56.250Z,100968.47
2022-08-12T00:52:07.006Z,100968.88
2022-08-12T00:53:09.759Z,100971.97
2022-08-12T00:54:11.963Z,100975.25
2022-08-12T00:55:14.938Z,100974.81
2022-08-12T00:56:18.397Z,100970.00
2022-08-12T00:57:23.799Z,100976.44
2022-08-12T00:58:29.078Z,100974.06
2022-08-12T00:59:32.793Z,100973.28
2022-08-12T01:00:35.917Z,100966.09
2022-08-12T01:02:11.411Z,100970.53
2022-08-12T01:03:03.466Z,100971.72
2022-08-12T01:04:27.881Z,100968.47
2022-08-12T01:05:50.371Z,100970.75
2022-08-12T01:07:17.020Z,100967.66
2022-08-12T01:08:38.026Z,100965.59
2022-08-12T01:10:07.340Z,100975.22
2022-08-12T01:11:29.108Z,100966.75
2022-08-12T01:12:32.453Z,100978.72
2022-08-12T01:13:37.313Z,100983.88
2022-08-12T01:14:41.772Z,100973.13
2022-08-12T01:15:46.979Z,100974.00
2022-08-12T01:16:49.443Z,100972.34
2022-08-12T01:17:53.778Z,100978.75
2022-08-12T01:19:00.417Z,100975.16
2022-08-12T01:20:08.315Z,100982.72
2022-08-12T01:21:19.484Z,100978.75
2022-08-12T01:22:50.707Z,100981.94
2022-08-12T01:24:28.113Z,100985.19
2022-08-12T01:25:55.807Z,100981.19
2022-08-12T01:27:00.339Z,100985.25
2022-08-12T01:28:02.743Z,100986.84
2022-08-12T01:29:08.061Z,100981.28
2022-08-12T01:30:13.411Z,100983.69
2022-08-12T01:31:19.476Z,100984.50
2022-08-12T01:32:29.499Z,100990.88
2022-08-12T01:33:46.531Z,100984.16
2022-08-12T01:35:15.546Z,100995.81
2022-08-12T01:36:23.340Z,100987.06
2022-08-12T01:37:26.758Z,100994.28
2022-08-12T01:38:36.028Z,100992.66
2022-08-12T01:40:35.259Z,100995.06
2022-08-12T01:41:12.464Z,100996.66
2022-08-12T01:42:19.799Z,100989.88
2022-08-12T01:44:49.143Z,100992.28
2022-08-12T01:46:09.112Z,100984.72
2022-08-12T01:47:24.245Z,100991.88
2022-08-12T01:48:59.083Z,100987.09
2022-08-12T01:51:00.422Z,100993.47
2022-08-12T01:52:20.720Z,101001.13
2022-08-12T01:53:50.476Z,100995.09
2022-08-12T01:54:56.593Z,100998.28
2022-08-12T01:56:02.314Z,100991.53
2022-08-12T01:57:12.807Z,101001.50
2022-08-12T01:58:58.550Z,100993.50
2022-08-12T02:00:12.957Z,100988.31
2022-08-12T02:01:16.617Z,100985.09
2022-08-12T02:02:39.967Z,100987.47
2022-08-12T02:04:28.494Z,100987.06
2022-08-12T02:06:03.454Z,100990.63
2022-08-12T02:07:43.501Z,100989.41
2022-08-12T02:09:15.445Z,100982.97
2022-08-12T02:11:21.244Z,100987.66
2022-08-12T02:13:01.292Z,100996.56
2022-08-12T02:14:44.958Z,100990.94
2022-08-12T02:16:00.125Z,101000.53
2022-08-12T02:17:54.548Z,100999.38
2022-08-12T02:19:28.862Z,100997.38
2022-08-12T02:20:51.762Z,100996.56
2022-08-12T02:23:42.460Z,101002.47
2022-08-12T02:24:46.681Z,101006.91
2022-08-12T02:25:50.972Z,100999.69
2022-08-12T02:26:58.372Z,100998.81
2022-08-12T02:28:09.431Z,101005.03
2022-08-12T02:29:17.002Z,100998.28
2022-08-12T02:30:26.820Z,101007.13
2022-08-12T02:33:29.117Z,101001.88
2022-08-12T02:34:35.873Z,101012.22
2022-08-12T02:41:50.238Z,101003.19
2022-08-12T02:50:45.495Z,101008.94
2022-08-12T02:51:48.325Z,101009.72
2022-08-12T02:52:55.440Z,101007.38
2022-08-12T02:54:08.959Z,101015.81
2022-08-12T02:55:28.172Z,101009.50
2022-08-12T02:56:36.564Z,101008.88
2022-08-12T02:57:41.512Z,101002.22
2022-08-12T02:58:46.401Z,101010.28
2022-08-12T02:59:50.919Z,101006.22
2022-08-12T03:00:53.804Z,101007.13
2022-08-12T03:02:00.007Z,101009.28
2022-08-12T03:03:07.214Z,101007.69
2022-08-12T03:04:20.197Z,101006.63
2022-08-12T03:05:25.146Z,101004.91
2022-08-12T03:06:38.972Z,101002.91
2022-08-12T03:07:59.108Z,101004.44
2022-08-12T03:09:05.465Z,101008.84
2022-08-12T03:10:16.022Z,101010.78
2022-08-12T03:11:41.649Z,101011.44
2022-08-12T03:12:49.789Z,101011.72
2022-08-12T03:14:00.395Z,101000.63
2022-08-12T03:15:06.935Z,101013.44
2022-08-12T03:16:12.409Z,101006.19
2022-08-12T03:17:24.618Z,101003.25
2022-08-12T03:18:28.739Z,101017.31
2022-08-12T03:19:31.615Z,100999.38
2022-08-12T03:20:43.250Z,101002.09
2022-08-12T03:21:52.891Z,101004.56
2022-08-12T03:23:17.363Z,101005.34
2022-08-12T03:24:32.393Z,100997.06
2022-08-12T03:25:38.948Z,100995.47
2022-08-12T03:26:45.031Z,101006.78
2022-08-12T03:27:52.226Z,100998.94
2022-08-12T03:28:58.260Z,100998.84
2022-08-12T03:30:01.694Z,100991.53
2022-08-12T03:32:01.807Z,100996.38
2022-08-12T03:33:07.253Z,100989.06
2022-08-12T03:34:13.637Z,100995.56
2022-08-12T03:35:40.153Z,100996.63
2022-08-12T03:36:42.777Z,100992.56
2022-08-12T03:37:46.076Z,100995.00
2022-08-12T03:39:10.776Z,100996.63
2022-08-12T03:40:35.322Z,100992.88
2022-08-12T03:41:45.233Z,100991.06
2022-08-12T03:43:07.819Z,100999.25
2022-08-12T03:44:53.517Z,100989.75
2022-08-12T03:46:17.762Z,100998.38
2022-08-12T03:47:52.609Z,100991.78
2022-08-12T03:49:15.908Z,100998.66
2022-08-12T03:50:44.186Z,100995.50
2022-08-12T03:52:05.831Z,100999.41
2022-08-12T03:53:30.707Z,100996.34
2022-08-12T03:54:51.458Z,100999.41
2022-08-12T03:56:13.556Z,100999.63
2022-08-12T03:57:34.174Z,100996.91
2022-08-12T03:58:56.206Z,101002.59
2022-08-12T04:00:24.224Z,100998.94
2022-08-12T04:01:27.935Z,100994.13
2022-08-12T04:02:31.248Z,101000.94
2022-08-12T04:03:53.801Z,101004.16
2022-08-12T04:04:59.333Z,100999.56
2022-08-12T04:06:01.782Z,100995.44
2022-08-12T04:07:09.407Z,101011.66
2022-08-12T04:08:12.033Z,101005.78
2022-08-12T04:09:16.466Z,101007.00
2022-08-12T04:10:20.345Z,101009.09
2022-08-12T04:11:46.845Z,101013.84
2022-08-12T04:13:18.940Z,101013.69
2022-08-12T04:14:21.384Z,101015.03
2022-08-12T04:15:29.351Z,101014.03
2022-08-12T04:16:31.802Z,101008.31
2022-08-12T04:17:35.352Z,101013.41
2022-08-12T04:18:41.686Z,101013.06
2022-08-12T04:19:46.838Z,101013.28
2022-08-12T04:20:50.295Z,101006.00
2022-08-12T04:22:01.734Z,101020.44
2022-08-12T04:23:08.780Z,101014.13
2022-08-12T04:24:11.585Z,101018.19
2022-08-12T04:25:14.104Z,101013.03
2022-08-12T04:26:16.569Z,101018.38
2022-08-12T04:27:20.647Z,101012.13
2022-08-12T04:28:28.265Z,101011.75
2022-08-12T04:30:21.126Z,101012.56
2022-08-12T04:30:52.804Z,101014.72
2022-08-12T04:31:57.044Z,101021.97
2022-08-12T04:33:03.528Z,101018.34
2022-08-12T04:34:10.130Z,101017.75
2022-08-12T04:35:14.415Z,101016.00
2022-08-12T04:36:18.014Z,101025.66
2022-08-12T04:37:21.512Z,101020.97
2022-08-12T04:38:24.592Z,101026.94
2022-08-12T04:39:27.869Z,101020.09
2022-08-12T04:40:41.389Z,101020.69
2022-08-12T04:41:52.475Z,101023.34
2022-08-12T04:43:02.861Z,101023.66
2022-08-12T04:44:07.063Z,101022.03
2022-08-12T04:45:09.822Z,101022.34
2022-08-12T04:46:16.719Z,101018.31
2022-08-12T04:47:22.351Z,101019.72
2022-08-12T04:48:24.608Z,101019.09
2022-08-12T04:49:28.510Z,101017.34
2022-08-12T04:50:36.139Z,101019.66
2022-08-12T04:51:40.708Z,101021.41
2022-08-12T04:52:43.017Z,101020.38
2022-08-12T04:53:47.385Z,101016.34
2022-08-12T04:54:50.666Z,101028.69
2022-08-12T04:55:53.363Z,101029.47
2022-08-12T04:57:04.317Z,101022.34
2022-08-12T04:58:09.939Z,101017.22
2022-08-12T04:59:15.933Z,101025.41
2022-08-12T05:00:20.594Z,101016.03
2022-08-12T05:01:28.055Z,101025.22
2022-08-12T05:02:31.185Z,101026.50
2022-08-12T05:03:46.551Z,101025.34
2022-08-12T05:05:00.780Z,101023.03
2022-08-12T05:06:04.455Z,101013.75
2022-08-12T05:07:10.092Z,101021.34
2022-08-12T05:08:22.736Z,101025.44
2022-08-12T05:09:24.951Z,101027.28
2022-08-12T05:10:48.179Z,101028.06
2022-08-12T05:11:54.139Z,101024.03
2022-08-12T05:13:00.099Z,101024.94
2022-08-12T05:14:19.578Z,101020.47
2022-08-12T05:15:29.331Z,101028.16
2022-08-12T05:16:34.091Z,101021.22
2022-08-12T05:17:38.105Z,101017.59
2022-08-12T05:18:40.609Z,101017.59
2022-08-12T05:19:48.183Z,101016.09
2022-08-12T05:20:52.161Z,101024.06
2022-08-12T05:21:55.309Z,101016.00
2022-08-12T05:23:27.748Z,101024.16
2022-08-12T05:24:30.134Z,101016.41
2022-08-12T05:25:32.583Z,101019.41
2022-08-12T05:26:35.187Z,101023.28
2022-08-12T05:27:37.406Z,101019.34
2022-08-12T05:28:39.726Z,101024.69
2022-08-12T05:30:07.353Z,101022.25
2022-08-12T05:31:05.798Z,101026.31
2022-08-12T05:32:08.927Z,101025.94
2022-08-12T05:33:12.672Z,101027.28
2022-08-12T05:34:14.887Z,101027.47
2022-08-12T05:35:17.039Z,101032.47
2022-08-12T05:36:20.138Z,101024.69
2022-08-12T05:37:23.050Z,101024.44
2022-08-12T05:38:45.473Z,101030.34
2022-08-12T05:39:47.908Z,101032.63
2022-08-12T05:40:51.434Z,101029.88
2022-08-12T05:41:53.821Z,101025.31
2022-08-12T05:42:56.532Z,101018.50
2022-08-12T05:44:00.142Z,101028.00
2022-08-12T05:45:05.572Z,101021.78
2022-08-12T05:46:08.142Z,101026.38
2022-08-12T05:47:15.008Z,101023.09
2022-08-12T05:48:19.791Z,101022.69
2022-08-12T05:49:22.026Z,101014.06
2022-08-12T05:50:24.661Z,101016.47
2022-08-12T05:51:41.094Z,101015.75
2022-08-12T05:52:44.351Z,101016.91
2022-08-12T05:53:46.964Z,101007.94
2022-08-12T05:54:57.584Z,101011.75
2022-08-12T05:56:00.546Z,101011.06
2022-08-12T05:57:06.498Z,101009.66
2022-08-12T05:58:09.537Z,101009.88
2022-08-12T05:59:12.514Z,101012.66
2022-08-12T06:00:18.044Z,101010.50
2022-08-12T06:02:11.715Z,101005.72
2022-08-12T06:02:49.836Z,101006.56
2022-08-12T06:03:53.752Z,101007.78
2022-08-12T06:05:00.552Z,101013.97
2022-08-12T06:06:03.472Z,101008.66
2022-08-12T06:07:59.600Z,101008.81
2022-08-12T06:08:31.724Z,101011.06
2022-08-12T06:09:36.693Z,101021.09
2022-08-12T06:10:38.791Z,101020.09
2022-08-12T06:11:53.994Z,101024.66
2022-08-12T06:13:08.069Z,101025.56
2022-08-12T06:14:11.935Z,101014.97
2022-08-12T06:15:14.454Z,101006.09
2022-08-12T06:16:22.307Z,101003.97
2022-08-12T06:17:24.621Z,101008.59
2022-08-12T06:18:29.868Z,101011.50
2022-08-12T06:20:26.538Z,101011.28
2022-08-12T06:20:57.773Z,101006.03
2022-08-12T06:22:02.303Z,100999.69
2022-08-12T06:23:05.906Z,101003.84
2022-08-12T06:24:09.725Z,101009.84
2022-08-12T06:25:22.086Z,101005.41
2022-08-12T06:26:25.513Z,101007.16
2022-08-12T06:27:27.757Z,101012.63
2022-08-12T06:28:31.076Z,101001.13
2022-08-12T06:30:06.740Z,101001.69
2022-08-12T06:31:24.394Z,100998.53
2022-08-12T06:32:21.700Z,100997.56
2022-08-12T06:33:55.520Z,101003.91
2022-08-12T06:35:26.142Z,101006.34
2022-08-12T06:36:32.541Z,101010.88
2022-08-12T06:37:40.519Z,101003.31
2022-08-12T06:38:48.039Z,101004.69
2022-08-12T06:39:50.371Z,101008.53
2022-08-12T06:41:15.778Z,101013.03
2022-08-12T06:42:36.837Z,101001.22
2022-08-12T06:44:05.725Z,101008.09
2022-08-12T06:45:02.468Z,101005.47
2022-08-12T06:46:05.860Z,101009.53
2022-08-12T06:47:07.918Z,101003.41
2022-08-12T06:48:11.385Z,101005.84
2022-08-12T06:49:14.160Z,101007.84
2022-08-12T06:50:16.637Z,100999.59
2022-08-12T06:51:20.879Z,101003.75
2022-08-12T06:52:25.131Z,101000.22
2022-08-12T06:53:28.030Z,100998.44
2022-08-12T06:54:32.377Z,101002.03
2022-08-12T06:55:34.696Z,101001.56
2022-08-12T06:58:07.277Z,101002.03
2022-08-12T06:59:14.347Z,100991.09
2022-08-12T07:00:27.980Z,100994.06
2022-08-12T07:01:38.124Z,100995.06
2022-08-12T07:02:40.447Z,100997.19
2022-08-12T07:03:42.878Z,100990.41
2022-08-12T07:04:45.933Z,100991.91
2022-08-12T07:05:48.485Z,101000.44
2022-08-12T07:06:55.906Z,100997.75
2022-08-12T07:08:05.124Z,100991.00
2022-08-12T07:09:16.265Z,100995.38
2022-08-12T07:10:39.511Z,100994.09
2022-08-12T07:11:44.402Z,100983.16
2022-08-12T07:12:55.180Z,100991.06
2022-08-12T07:14:12.885Z,100986.28
2022-08-12T07:15:16.708Z,100989.69
2022-08-12T07:16:20.727Z,100982.44
2022-08-12T07:17:22.850Z,100979.72
2022-08-12T07:18:29.026Z,100987.63
2022-08-12T07:19:45.112Z,100979.34
2022-08-12T07:20:53.247Z,100968.19
2022-08-12T07:22:01.930Z,100975.88
2022-08-12T07:23:05.765Z,100983.72
2022-08-12T07:24:07.923Z,100977.81
2022-08-12T07:25:28.680Z,100991.44
2022-08-12T07:26:30.860Z,100985.91
2022-08-12T07:27:40.799Z,100985.44
2022-08-12T07:28:44.268Z,100983.63
2022-08-12T07:30:02.627Z,100979.81
2022-08-12T07:31:12.516Z,100989.91
2022-08-12T07:32:23.798Z,100982.06
2022-08-12T07:33:28.448Z,100977.13
2022-08-12T07:34:30.529Z,100986.94
2022-08-12T07:35:33.702Z,100981.97
2022-08-12T07:36:35.724Z,100985.28
2022-08-12T07:37:44.952Z,100985.34
2022-08-12T07:38:49.192Z,100983.72
2022-08-12T07:39:59.554Z,100990.94
2022-08-12T07:41:15.588Z,100990.25
2022-08-12T07:42:20.295Z,100985.75
2022-08-12T07:43:22.653Z,100995.75
2022-08-12T07:44:25.902Z,100986.28
2022-08-12T07:45:27.970Z,100993.66
2022-08-12T07:46:37.100Z,100984.50
2022-08-12T07:47:46.095Z,100984.66
2022-08-12T07:48:50.169Z,100984.78
2022-08-12T07:50:05.264Z,100985.19
2022-08-12T07:51:24.694Z,100982.47
2022-08-12T07:52:29.278Z,100986.06
2022-08-12T07:53:31.529Z,100979.97
2022-08-12T07:54:33.780Z,100984.81
2022-08-12T07:55:37.057Z,100973.72
2022-08-12T07:56:41.019Z,100977.81
2022-08-12T07:57:59.593Z,100983.19
2022-08-12T07:59:03.320Z,100976.56
2022-08-12T08:00:06.446Z,100980.16
2022-08-12T08:01:15.945Z,100975.22
2022-08-12T08:02:17.987Z,100980.47
2022-08-12T08:03:20.151Z,100975.25
2022-08-12T08:04:40.624Z,100986.75
2022-08-12T08:05:50.041Z,100984.59
2022-08-12T08:06:53.092Z,100979.19
2022-08-12T08:08:01.949Z,100984.56
2022-08-12T08:09:05.555Z,100982.38
2022-08-12T08:10:11.054Z,100977.50
2022-08-12T08:11:31.840Z,100982.78
2022-08-12T08:12:52.668Z,100969.69
2022-08-12T08:14:00.276Z,100975.28
2022-08-12T08:15:02.336Z,100970.09
2022-08-12T08:16:05.971Z,100976.25
2022-08-12T08:17:10.585Z,100971.72
2022-08-12T08:18:26.470Z,100959.88
2022-08-12T08:19:31.326Z,100965.78
2022-08-12T08:20:39.738Z,100952.28
2022-08-12T08:21:43.028Z,100956.97
2022-08-12T08:22:45.420Z,100953.66
2022-08-12T08:24:06.824Z,100952.88
2022-08-12T08:25:20.126Z,100956.69
2022-08-12T08:26:36.480Z,100961.25
2022-08-12T08:27:45.799Z,100954.88
2022-08-12T08:28:48.509Z,100953.00
2022-08-12T08:29:54.002Z,100961.53
2022-08-12T08:30:56.138Z,100962.84
2022-08-12T08:32:01.585Z,100954.34
2022-08-12T08:33:15.520Z,100960.66
2022-08-12T08:34:53.697Z,100947.03
2022-08-12T08:35:56.726Z,100956.19
2022-08-12T08:37:00.008Z,100951.28
2022-08-12T08:38:14.992Z,100953.94
2022-08-12T08:39:34.917Z,100949.56
2022-08-12T08:40:57.805Z,100950.72
2022-08-12T08:42:20.565Z,100957.69
2022-08-12T08:43:23.050Z,100947.44
2022-08-12T08:44:26.452Z,100950.28
2022-08-12T08:45:28.593Z,100949.22
2022-08-12T08:46:33.445Z,100940.16
2022-08-12T08:47:44.322Z,100952.31
2022-08-12T08:48:46.474Z,100947.69
2022-08-12T08:49:48.527Z,100948.56
2022-08-12T08:51:04.334Z,100939.22
2022-08-12T08:52:09.864Z,100944.28
2022-08-12T08:53:12.690Z,100937.06
2022-08-12T08:54:15.381Z,100948.88
2022-08-12T08:55:25.562Z,100936.06
2022-08-12T08:56:43.088Z,100932.88
2022-08-12T08:57:51.165Z,100939.88
2022-08-12T08:58:53.697Z,100936.91
2022-08-12T08:59:55.897Z,100928.41
2022-08-12T09:00:59.593Z,100930.66
2022-08-12T09:02:02.636Z,100937.09
2022-08-12T09:03:15.556Z,100934.03
2022-08-12T09:05:14.633Z,100929.44
2022-08-12T09:06:02.247Z,100938.41
2022-08-12T09:07:17.462Z,100932.72
2022-08-12T09:08:29.984Z,100932.53
2022-08-12T09:10:01.605Z,100935.66
2022-08-12T09:11:00.167Z,100930.09
2022-08-12T09:12:27.380Z,100935.66
2022-08-12T09:14:12.960Z,100936.66
2022-08-12T09:14:54.942Z,100939.13
2022-08-12T09:15:59.451Z,100924.97
2022-08-12T09:17:01.786Z,100934.13
2022-08-12T09:18:08.960Z,100920.25
2022-08-12T09:19:26.790Z,100931.81
2022-08-12T09:20:33.875Z,100923.88
2022-08-12T09:21:54.792Z,100925.59
2022-08-12T09:22:58.918Z,100922.19
2022-08-12T09:24:07.495Z,100919.00
2022-08-12T09:25:11.191Z,100921.91
2022-08-12T09:26:31.737Z,100925.31
2022-08-12T09:27:57.599Z,100925.34
2022-08-12T09:29:02.667Z,100920.34
2022-08-12T09:30:18.254Z,100921.09
2022-08-12T09:32:03.514Z,100919.28
2022-08-12T09:33:15.143Z,100909.91
2022-08-12T09:34:33.750Z,100911.59
2022-08-12T09:35:44.469Z,100899.59
2022-08-12T09:36:58.262Z,100910.47
2022-08-12T09:38:03.990Z,100909.16
2022-08-12T09:40:02.413Z,100907.50
2022-08-12T09:40:57.596Z,100903.03
2022-08-12T09:42:35.799Z,100904.66
2022-08-12T09:44:01.253Z,100900.50
2022-08-12T09:45:24.529Z,100901.00
2022-08-12T09:46:53.299Z,100909.91
2022-08-12T09:47:59.681Z,100903.97
2022-08-12T09:49:03.894Z,100893.81
2022-08-12T09:50:07.647Z,100903.88
2022-08-12T09:51:22.907Z,100903.03
2022-08-12T09:52:25.088Z,100907.22
2022-08-12T09:53:36.399Z,100892.63
2022-08-12T09:54:43.023Z,100896.50
2022-08-12T09:56:05.277Z,100893.06
2022-08-12T09:58:46.096Z,100895.94
2022-08-12T09:59:10.579Z,100889.50
2022-08-12T10:00:28.274Z,100889.34
2022-08-12T10:01:35.307Z,100887.06
2022-08-12T10:03:32.085Z,100885.25
2022-08-12T10:04:36.359Z,100883.03
2022-08-12T10:06:20.570Z,100885.59
2022-08-12T10:07:13.709Z,100880.53
2022-08-12T10:08:30.715Z,100880.13
2022-08-12T10:09:58.748Z,100882.97
2022-08-12T10:11:20.013Z,100879.69
2022-08-12T10:12:41.799Z,100885.63
2022-08-12T10:13:46.921Z,100879.19
2022-08-12T10:14:53.843Z,100872.63
2022-08-12T10:16:03.000Z,100872.97
2022-08-12T10:17:08.815Z,100869.19
2022-08-12T10:18:12.588Z,100879.84
2022-08-12T10:19:17.407Z,100871.69
2022-08-12T10:20:20.561Z,100873.47
2022-08-12T10:21:35.570Z,100874.25
2022-08-12T10:22:41.228Z,100867.06
2022-08-12T10:23:51.665Z,100865.75
2022-08-12T10:25:18.229Z,100876.50
2022-08-12T10:26:40.201Z,100858.28
2022-08-12T10:28:03.927Z,100863.59
2022-08-12T10:30:02.816Z,100860.63
2022-08-12T10:30:58.914Z,100860.25
2022-08-12T10:32:21.754Z,100859.75
2022-08-12T10:33:31.469Z,100859.84
2022-08-12T10:34:35.079Z,100859.88
2022-08-12T10:35:37.995Z,100855.94
2022-08-12T10:36:44.585Z,100859.28
2022-08-12T10:38:34.557Z,100849.84
2022-08-12T10:40:00.847Z,100863.81
2022-08-12T10:40:57.481Z,100856.00
2022-08-12T10:42:29.603Z,100859.22
2022-08-12T10:43:55.005Z,100849.94
2022-08-12T10:45:05.760Z,100847.44
2022-08-12T10:48:19.164Z,100848.59
2022-08-12T10:50:00.870Z,100849.53
2022-08-12T10:50:56.192Z,100844.47
2022-08-12T10:52:33.143Z,100848.81
2022-08-12T10:53:19.473Z,100845.44
2022-08-12T10:54:27.004Z,100841.31
2022-08-12T10:55:29.359Z,100842.53
2022-08-12T10:56:34.208Z,100846.53
2022-08-12T10:58:12.617Z,100841.13
2022-08-12T10:59:00.171Z,100835.25
2022-08-12T11:00:30.624Z,100840.97
2022-08-12T11:04:20.168Z,100832.16
2022-08-12T11:04:24.117Z,100838.44
2022-08-12T11:04:35.377Z,100825.72
2022-08-12T11:07:02.721Z,100830.28
2022-08-12T11:08:34.094Z,100827.22
2022-08-12T11:08:37.662Z,100829.69
2022-08-12T11:09:56.881Z,100828.59
2022-08-12T11:11:14.117Z,100826.91
2022-08-12T11:12:56.544Z,100816.72
2022-08-12T11:13:46.964Z,100808.38
2022-08-12T11:14:52.357Z,100809.94
2022-08-12T11:16:03.542Z,100808.84
2022-08-12T11:17:43.169Z,100813.72
2022-08-12T11:18:42.416Z,100818.19
2022-08-12T11:19:45.720Z,100808.84
2022-08-12T11:20:49.369Z,100807.28
2022-08-12T11:21:58.197Z,100802.25
2022-08-12T11:23:25.688Z,100802.75
2022-08-12T11:24:31.733Z,100806.09
2022-08-12T11:25:58.105Z,100805.16
2022-08-12T11:27:00.232Z,100801.28
2022-08-12T11:28:02.417Z,100807.66
2022-08-12T11:29:22.686Z,100808.38
2022-08-12T11:30:31.283Z,100805.00
2022-08-12T11:31:56.392Z,100800.69
2022-08-12T11:32:59.670Z,100806.75
2022-08-12T11:34:05.822Z,100799.31
2022-08-12T11:35:24.604Z,100796.38
2022-08-12T11:36:26.907Z,100792.53
2022-08-12T11:37:29.299Z,100796.78
2022-08-12T11:38:31.729Z,100790.91
2022-08-12T11:40:03.549Z,100804.06
2022-08-12T11:40:56.882Z,100800.69
2022-08-12T11:42:02.996Z,100791.13
2022-08-12T11:43:20.063Z,100799.19
2022-08-12T11:44:35.136Z,100793.34
2022-08-12T11:45:39.807Z,100794.00
2022-08-12T11:46:52.777Z,100795.72
2022-08-12T11:48:03.371Z,100789.13
2022-08-12T11:49:06.383Z,100794.63
2022-08-12T11:50:11.900Z,100790.94
2022-08-12T11:51:22.834Z,100790.56
2022-08-12T11:52:51.322Z,100791.88
2022-08-12T11:53:57.431Z,100788.00
2022-08-12T11:55:00.817Z,100788.53
2022-08-12T11:56:06.669Z,100786.72
2022-08-12T11:58:13.098Z,100778.72
2022-08-12T12:00:23.983Z,100777.41
2022-08-12T12:02:04.751Z,100780.22
2022-08-12T12:02:43.523Z,100780.47
2022-08-12T12:03:48.833Z,100773.19
2022-08-12T12:04:52.263Z,100774.47
2022-08-12T12:05:55.549Z,100762.22
2022-08-12T12:07:07.106Z,100774.44
2022-08-12T12:08:37.613Z,100770.78
2022-08-12T12:09:52.837Z,100759.50
2022-08-12T12:10:56.182Z,100768.81
2022-08-12T12:11:58.635Z,100764.28
2022-08-12T12:13:01.124Z,100763.13
2022-08-12T12:14:07.657Z,100759.84
2022-08-12T12:15:14.348Z,100760.44
2022-08-12T12:16:30.896Z,100754.69
2022-08-12T12:17:39.711Z,100756.22
2022-08-12T12:18:42.929Z,100761.75
2022-08-12T12:19:47.439Z,100752.13
2022-08-12T12:20:50.080Z,100751.47
2022-08-12T12:21:54.361Z,100749.88
2022-08-12T12:22:56.719Z,100751.03
2022-08-12T12:24:00.764Z,100753.47
2022-08-12T12:25:12.889Z,100753.38
2022-08-12T12:26:35.593Z,100748.31
2022-08-12T12:28:05.252Z,100750.31
2022-08-12T12:30:13.574Z,100750.34
2022-08-12T12:30:37.236Z,100744.84
2022-08-12T12:32:10.987Z,100740.72
2022-08-12T12:33:03.573Z,100743.66
2022-08-12T12:34:05.642Z,100750.50
2022-08-12T12:35:44.476Z,100748.38
2022-08-12T12:36:31.391Z,100742.38
2022-08-12T12:38:04.208Z,100745.81
2022-08-12T12:39:12.072Z,100749.00
2022-08-12T12:40:14.570Z,100745.53
2022-08-12T12:41:17.344Z,100738.56
2022-08-12T12:42:43.066Z,100746.78
2022-08-12T12:43:43.288Z,100743.88
2022-08-12T12:44:51.045Z,100738.84
2022-08-12T12:45:57.500Z,100735.41
2022-08-12T12:47:00.931Z,100739.13
2022-08-12T12:48:09.051Z,100731.09
2022-08-12T12:49:15.384Z,100741.72
2022-08-12T12:50:34.794Z,100746.00
2022-08-12T12:51:58.125Z,100736.16
2022-08-12T12:53:01.152Z,100744.34
2022-08-12T12:54:07.701Z,100737.97
2022-08-12T12:55:13.551Z,100737.78
2022-08-12T12:56:35.187Z,100743.03
2022-08-12T12:58:00.437Z,100734.69
2022-08-12T12:59:06.278Z,100730.09
2022-08-12T13:00:16.045Z,100732.44
2022-08-12T13:01:30.036Z,100730.16
2022-08-12T13:02:39.500Z,100728.03
2022-08-12T13:03:49.114Z,100728.66
2022-08-12T13:04:52.055Z,100724.78
2022-08-12T13:06:00.936Z,100732.06
2022-08-12T13:07:03.125Z,100728.28
2022-08-12T13:08:35.939Z,100726.09
2022-08-12T13:09:38.228Z,100725.53
2022-08-12T13:10:43.119Z,100730.84
2022-08-12T13:11:54.207Z,100727.38
2022-08-12T13:14:10.355Z,100726.41
2022-08-12T13:14:27.955Z,100730.84
2022-08-12T13:15:45.136Z,100731.03
2022-08-12T13:16:50.183Z,100727.81
2022-08-12T13:18:02.420Z,100726.09
2022-08-12T13:19:07.669Z,100726.72
2022-08-12T13:20:10.656Z,100732.41
2022-08-12T13:21:15.867Z,100733.97
2022-08-12T13:22:35.499Z,100723.94
2022-08-12T13:23:37.946Z,100722.69
2022-08-12T13:24:56.465Z,100724.72
2022-08-12T13:25:59.871Z,100716.03
2022-08-12T13:27:03.203Z,100721.00
2022-08-12T13:28:07.778Z,100711.28
2022-08-12T13:29:12.002Z,100724.25
2022-08-12T13:30:24.880Z,100714.31
2022-08-12T13:31:27.315Z,100713.38
2022-08-12T13:32:31.403Z,100717.66
2022-08-12T13:34:33.450Z,100723.31
2022-08-12T13:35:03.947Z,100716.47
2022-08-12T13:36:21.439Z,100714.91
2022-08-12T13:37:28.182Z,100719.13
2022-08-12T13:38:54.304Z,100709.63
2022-08-12T13:39:59.590Z,100708.41
2022-08-12T13:41:02.794Z,100710.59
2022-08-12T13:42:13.737Z,100712.47
2022-08-12T13:43:40.149Z,100707.06
2022-08-12T13:44:39.909Z,100711.00
2022-08-12T13:45:43.377Z,100699.13
2022-08-12T13:46:58.622Z,100714.16
2022-08-12T13:48:04.938Z,100707.19
2022-08-12T13:49:17.299Z,100702.56
2022-08-12T13:50:39.795Z,100706.63
2022-08-12T13:51:42.858Z,100703.47
2022-08-12T13:52:45.841Z,100702.50
2022-08-12T13:53:59.234Z,100705.53
2022-08-12T13:55:07.491Z,100705.72
2022-08-12T13:56:12.015Z,100704.03
2022-08-12T13:57:17.081Z,100701.09
2022-08-12T13:58:21.499Z,100702.94
2022-08-12T13:59:27.583Z,100700.78
2022-08-12T14:00:34.312Z,100701.38
2022-08-12T14:01:41.524Z,100699.50
2022-08-12T14:02:43.817Z,100696.28